Mount Rainier National Park, WA

7:17 PM PDT on March 29, 2015 (GMT -0700)
Stampede Pass | Change Station
CLOSE
Current Station
Airport
Location: Stampede Pass,
Elevation: 3967 ft
Nearby Weather Stations

Elev 3967 ft 47.28 °N, 121.34 °W | Updated 155 days ago

Mostly Cloudy
Mostly Cloudy
50 °F
Feels Like 50 °F
N
2
Wind Variable Wind from SW
Gusts mph

Today
High -- | Low -- °F
--% Chance of Precip.
Yesterday
High -- | Low -- °F
Precip. -- in
6:52 AM 7:32 PM
Waxing Gibbous, 76% visible
Pressure 29.66 in
Visibility -9999.0 miles
Clouds
Dew Point 44 °F
Humidity 81%
Rainfall 0.00 in
Snow Depth Not available.
UV Not available.
Pollen 10.00 out of 12
Air Quality Not available.
Flu Activity Regional
METAR KSMP 251256Z AUTO 11008G19KT 360V180 04/03 A2964 RMK AO2 SLP044 T00440033 $

More Conditions Fewer Conditions

Pressure 29.66 in
Visibility -9999.0 miles
Clouds
Dew Point 44 °F
Humidity 81%
Rainfall 0.00 in
Snow Depth Not available.
UV Not available.
Pollen 10.00 out of 12
Air Quality Not available.
Flu Activity Regional
METAR KSMP 251256Z AUTO 11008G19KT 360V180 04/03 A2964 RMK AO2 SLP044 T00440033 $

More Conditions Fewer Conditions

10-Day Weather Forecast

Almanac

Astronomy

Mar. 29, 2015 Rise Set
Actual Time 6:52 AM PDT 7:32 PM PDT
Civil Twilight 6:22 AM PDT 8:02 PM PDT
Nautical Twilight 5:46 AM PDT 8:39 PM PDT
Astronomical Twilight 5:08 AM PDT 9:17 PM PDT
Moon 2:15 PM PDT (3/29) 4:00 AM PDT (3/29)
Length of Visible Light 13h 40m
Length of Day
12h 39m
Tomorrow will be 3m 20s longer.
Waxing Gibbous, 76% of the Moon is Illuminated
Today
Waxing Gibbous
Apr 4
Full
Apr 11
Last Quarter
Apr 18
New
Apr 25
First Quarter

Today's Extremes

State Highs State Lows

Community

WunderPhotos

Upload Photos

1,809,411 photos uploaded!

Nearby

Snow Depth

Station Depth Elevation
Paradise 51 in 5120 ft
Burnt Mountain 2 in 4200 ft
Morse Lake 59 in 5400 ft
Pigtail Peak 52 in 5900 ft
White Pass E.S. 10 in 4500 ft

Earthquake Activity

City Distance Mag. Time & Date
Waterville, Washington 106 miles 2.5 10:46 AM PDT
2015-03-27
Minimum magnitude displayed is 2.5.

Coastal Water Temperatures

Place Temperature
No Stations Reporting

Nearby Weather Stations